sensor_id;sensor_type;location;lat;lon;timestamp;temperature;humidity
75281;HTU21D;63874;47.230;39.620;2024-02-23T00:00:34;0.46;81.84
75281;HTU21D;63874;47.230;39.620;2024-02-23T00:02:59;0.51;81.83
75281;HTU21D;63874;47.230;39.620;2024-02-23T00:05:25;0.50;81.62
75281;HTU21D;63874;47.230;39.620;2024-02-23T00:07:53;0.49;81.59
75281;HTU21D;63874;47.230;39.620;2024-02-23T00:10:19;0.51;81.55
75281;HTU21D;63874;47.230;39.620;2024-02-23T00:12:47;0.54;81.42
75281;HTU21D;63874;47.230;39.620;2024-02-23T00:15:13;0.54;81.32
75281;HTU21D;63874;47.230;39.620;2024-02-23T00:17:39;0.52;81.36
75281;HTU21D;63874;47.230;39.620;2024-02-23T00:20:05;0.52;81.37
75281;HTU21D;63874;47.230;39.620;2024-02-23T00:22:32;0.50;81.33
75281;HTU21D;63874;47.230;39.620;2024-02-23T00:24:59;0.53;81.43
75281;HTU21D;63874;47.230;39.620;2024-02-23T00:27:24;0.55;81.49
75281;HTU21D;63874;47.230;39.620;2024-02-23T00:29:50;0.60;81.41
75281;HTU21D;63874;47.230;39.620;2024-02-23T00:32:16;0.58;81.20
75281;HTU21D;63874;47.230;39.620;2024-02-23T00:34:42;0.50;81.07
75281;HTU21D;63874;47.230;39.620;2024-02-23T00:37:07;0.45;81.21
75281;HTU21D;63874;47.230;39.620;2024-02-23T00:39:33;0.43;81.28
75281;HTU21D;63874;47.230;39.620;2024-02-23T00:41:59;0.40;81.21
75281;HTU21D;63874;47.230;39.620;2024-02-23T00:44:24;0.38;81.20
75281;HTU21D;63874;47.230;39.620;2024-02-23T00:46:50;0.34;81.07
75281;HTU21D;63874;47.230;39.620;2024-02-23T00:49:19;0.27;81.14
75281;HTU21D;63874;47.230;39.620;2024-02-23T00:51:45;0.27;81.23
75281;HTU21D;63874;47.230;39.620;2024-02-23T00:54:10;0.24;81.31
75281;HTU21D;63874;47.230;39.620;2024-02-23T00:56:36;0.20;81.30
75281;HTU21D;63874;47.230;39.620;2024-02-23T00:59:02;0.19;81.46
75281;HTU21D;63874;47.230;39.620;2024-02-23T01:01:28;0.15;81.31
75281;HTU21D;63874;47.230;39.620;2024-02-23T01:03:54;0.13;81.49
75281;HTU21D;63874;47.230;39.620;2024-02-23T01:06:20;0.10;81.73
75281;HTU21D;63874;47.230;39.620;2024-02-23T01:08:45;0.07;81.69
75281;HTU21D;63874;47.230;39.620;2024-02-23T01:11:11;0.07;81.95
75281;HTU21D;63874;47.230;39.620;2024-02-23T01:13:37;0.05;81.96
75281;HTU21D;63874;47.230;39.620;2024-02-23T01:16:03;0.08;82.13
75281;HTU21D;63874;47.230;39.620;2024-02-23T01:18:28;0.07;82.01
75281;HTU21D;63874;47.230;39.620;2024-02-23T01:20:56;0.07;82.02
75281;HTU21D;63874;47.230;39.620;2024-02-23T01:23:21;0.07;82.01
75281;HTU21D;63874;47.230;39.620;2024-02-23T01:25:47;0.09;82.08
75281;HTU21D;63874;47.230;39.620;2024-02-23T01:28:13;0.08;81.98
75281;HTU21D;63874;47.230;39.620;2024-02-23T01:30:39;0.08;82.04
75281;HTU21D;63874;47.230;39.620;2024-02-23T01:33:04;0.10;82.11
75281;HTU21D;63874;47.230;39.620;2024-02-23T01:35:30;0.07;81.94
75281;HTU21D;63874;47.230;39.620;2024-02-23T01:37:56;0.08;82.04
75281;HTU21D;63874;47.230;39.620;2024-02-23T01:40:21;0.13;82.21
75281;HTU21D;63874;47.230;39.620;2024-02-23T01:42:47;0.15;81.94
75281;HTU21D;63874;47.230;39.620;2024-02-23T01:45:13;0.10;81.90
75281;HTU21D;63874;47.230;39.620;2024-02-23T01:47:39;0.07;81.92
75281;HTU21D;63874;47.230;39.620;2024-02-23T01:50:05;0.06;81.99
75281;HTU21D;63874;47.230;39.620;2024-02-23T01:52:31;-0.02;81.85
75281;HTU21D;63874;47.230;39.620;2024-02-23T01:54:57;-0.08;81.91
75281;HTU21D;63874;47.230;39.620;2024-02-23T01:57:23;-0.14;81.94
75281;HTU21D;63874;47.230;39.620;2024-02-23T01:59:50;-0.15;82.10
75281;HTU21D;63874;47.230;39.620;2024-02-23T02:02:15;-0.13;82.30
75281;HTU21D;63874;47.230;39.620;2024-02-23T02:04:43;-0.13;82.14
75281;HTU21D;63874;47.230;39.620;2024-02-23T02:07:08;-0.12;82.26
75281;HTU21D;63874;47.230;39.620;2024-02-23T02:09:34;-0.11;82.20
75281;HTU21D;63874;47.230;39.620;2024-02-23T02:12:00;-0.09;82.23
75281;HTU21D;63874;47.230;39.620;2024-02-23T02:14:26;-0.07;82.17
75281;HTU21D;63874;47.230;39.620;2024-02-23T02:17:07;-0.05;82.17
75281;HTU21D;63874;47.230;39.620;2024-02-23T02:19:34;-0.01;82.23
75281;HTU21D;63874;47.230;39.620;2024-02-23T02:21:59;-0.00;82.07
75281;HTU21D;63874;47.230;39.620;2024-02-23T02:24:25;0.02;82.10
75281;HTU21D;63874;47.230;39.620;2024-02-23T02:26:51;-0.00;81.95
75281;HTU21D;63874;47.230;39.620;2024-02-23T02:29:16;0.01;82.00
75281;HTU21D;63874;47.230;39.620;2024-02-23T02:31:42;0.04;82.16
75281;HTU21D;63874;47.230;39.620;2024-02-23T02:34:08;0.07;82.10
75281;HTU21D;63874;47.230;39.620;2024-02-23T02:36:38;0.03;81.83
75281;HTU21D;63874;47.230;39.620;2024-02-23T02:39:04;0.06;82.01
75281;HTU21D;63874;47.230;39.620;2024-02-23T02:41:30;0.05;81.84
75281;HTU21D;63874;47.230;39.620;2024-02-23T02:43:56;0.03;81.90
75281;HTU21D;63874;47.230;39.620;2024-02-23T02:46:21;0.03;81.84
75281;HTU21D;63874;47.230;39.620;2024-02-23T02:48:47;0.04;81.94
75281;HTU21D;63874;47.230;39.620;2024-02-23T02:51:13;0.06;81.91
75281;HTU21D;63874;47.230;39.620;2024-02-23T02:53:44;0.06;81.80
75281;HTU21D;63874;47.230;39.620;2024-02-23T02:56:10;0.06;81.76
75281;HTU21D;63874;47.230;39.620;2024-02-23T02:58:38;0.06;81.78
75281;HTU21D;63874;47.230;39.620;2024-02-23T03:01:03;0.07;81.68
75281;HTU21D;63874;47.230;39.620;2024-02-23T03:03:29;-0.01;81.54
75281;HTU21D;63874;47.230;39.620;2024-02-23T03:05:55;-0.07;81.69
75281;HTU21D;63874;47.230;39.620;2024-02-23T03:08:21;-0.09;81.74
75281;HTU21D;63874;47.230;39.620;2024-02-23T03:10:46;-0.14;81.97
75281;HTU21D;63874;47.230;39.620;2024-02-23T03:13:14;-0.15;82.02
75281;HTU21D;63874;47.230;39.620;2024-02-23T03:15:42;-0.13;82.20
75281;HTU21D;63874;47.230;39.620;2024-02-23T03:18:08;-0.14;82.07
75281;HTU21D;63874;47.230;39.620;2024-02-23T03:20:36;-0.15;82.11
75281;HTU21D;63874;47.230;39.620;2024-02-23T03:23:02;-0.15;82.35
75281;HTU21D;63874;47.230;39.620;2024-02-23T03:25:29;-0.15;82.37
75281;HTU21D;63874;47.230;39.620;2024-02-23T03:27:55;-0.20;82.49
75281;HTU21D;63874;47.230;39.620;2024-02-23T03:30:21;-0.22;82.61
75281;HTU21D;63874;47.230;39.620;2024-02-23T03:32:46;-0.20;82.62
75281;HTU21D;63874;47.230;39.620;2024-02-23T03:35:12;-0.17;82.81
75281;HTU21D;63874;47.230;39.620;2024-02-23T03:37:38;-0.16;82.71
75281;HTU21D;63874;47.230;39.620;2024-02-23T03:40:05;-0.14;82.79
75281;HTU21D;63874;47.230;39.620;2024-02-23T03:42:30;-0.11;82.82
75281;HTU21D;63874;47.230;39.620;2024-02-23T03:44:56;-0.10;82.96
75281;HTU21D;63874;47.230;39.620;2024-02-23T03:47:22;-0.14;82.91
75281;HTU21D;63874;47.230;39.620;2024-02-23T03:49:47;-0.20;83.10
75281;HTU21D;63874;47.230;39.620;2024-02-23T03:52:13;-0.21;83.00
75281;HTU21D;63874;47.230;39.620;2024-02-23T03:54:39;-0.19;83.13
75281;HTU21D;63874;47.230;39.620;2024-02-23T03:57:05;-0.16;83.17
75281;HTU21D;63874;47.230;39.620;2024-02-23T03:59:30;-0.15;83.05
75281;HTU21D;63874;47.230;39.620;2024-02-23T04:01:56;-0.17;83.04
75281;HTU21D;63874;47.230;39.620;2024-02-23T04:04:22;-0.17;83.19
75281;HTU21D;63874;47.230;39.620;2024-02-23T04:06:47;-0.16;83.04
75281;HTU21D;63874;47.230;39.620;2024-02-23T04:09:13;-0.20;82.98
75281;HTU21D;63874;47.230;39.620;2024-02-23T04:11:39;-0.17;83.16
75281;HTU21D;63874;47.230;39.620;2024-02-23T04:14:04;-0.21;82.97
75281;HTU21D;63874;47.230;39.620;2024-02-23T04:16:33;-0.24;83.00
75281;HTU21D;63874;47.230;39.620;2024-02-23T04:18:58;-0.22;83.30
75281;HTU21D;63874;47.230;39.620;2024-02-23T04:21:25;-0.24;83.04
75281;HTU21D;63874;47.230;39.620;2024-02-23T04:23:54;-0.29;83.01
75281;HTU21D;63874;47.230;39.620;2024-02-23T04:26:20;-0.29;83.41
75281;HTU21D;63874;47.230;39.620;2024-02-23T04:28:45;-0.32;83.20
75281;HTU21D;63874;47.230;39.620;2024-02-23T04:31:11;-0.36;83.34
75281;HTU21D;63874;47.230;39.620;2024-02-23T04:33:37;-0.41;83.23
75281;HTU21D;63874;47.230;39.620;2024-02-23T04:36:04;-0.46;83.32
75281;HTU21D;63874;47.230;39.620;2024-02-23T04:38:30;-0.46;83.48
75281;HTU21D;63874;47.230;39.620;2024-02-23T04:40:56;-0.44;83.45
75281;HTU21D;63874;47.230;39.620;2024-02-23T04:43:23;-0.44;83.44
75281;HTU21D;63874;47.230;39.620;2024-02-23T04:45:48;-0.43;83.47
75281;HTU21D;63874;47.230;39.620;2024-02-23T04:48:14;-0.37;83.61
75281;HTU21D;63874;47.230;39.620;2024-02-23T04:50:40;-0.34;83.61
75281;HTU21D;63874;47.230;39.620;2024-02-23T04:53:06;-0.30;83.74
75281;HTU21D;63874;47.230;39.620;2024-02-23T04:55:34;-0.21;83.78
75281;HTU21D;63874;47.230;39.620;2024-02-23T04:58:00;-0.14;83.86
75281;HTU21D;63874;47.230;39.620;2024-02-23T05:00:26;-0.08;83.73
75281;HTU21D;63874;47.230;39.620;2024-02-23T05:02:59;0.01;83.73
75281;HTU21D;63874;47.230;39.620;2024-02-23T05:05:25;0.08;83.69
75281;HTU21D;63874;47.230;39.620;2024-02-23T05:07:50;0.17;83.65
75281;HTU21D;63874;47.230;39.620;2024-02-23T05:10:16;0.22;83.45
75281;HTU21D;63874;47.230;39.620;2024-02-23T05:12:42;0.25;83.29
75281;HTU21D;63874;47.230;39.620;2024-02-23T05:15:08;0.31;83.35
75281;HTU21D;63874;47.230;39.620;2024-02-23T05:17:34;0.37;83.26
75281;HTU21D;63874;47.230;39.620;2024-02-23T05:19:59;0.46;83.26
75281;HTU21D;63874;47.230;39.620;2024-02-23T05:22:25;0.54;83.19
75281;HTU21D;63874;47.230;39.620;2024-02-23T05:24:51;0.63;83.12
75281;HTU21D;63874;47.230;39.620;2024-02-23T05:27:16;0.73;83.04
75281;HTU21D;63874;47.230;39.620;2024-02-23T05:29:42;0.83;82.84
75281;HTU21D;63874;47.230;39.620;2024-02-23T05:32:08;0.94;82.73
75281;HTU21D;63874;47.230;39.620;2024-02-23T05:34:34;1.03;82.42
75281;HTU21D;63874;47.230;39.620;2024-02-23T05:37:00;1.11;82.02
75281;HTU21D;63874;47.230;39.620;2024-02-23T05:39:27;1.17;81.67
75281;HTU21D;63874;47.230;39.620;2024-02-23T05:41:55;1.22;81.53
75281;HTU21D;63874;47.230;39.620;2024-02-23T05:44:23;1.31;81.03
75281;HTU21D;63874;47.230;39.620;2024-02-23T05:46:52;1.35;80.46
75281;HTU21D;63874;47.230;39.620;2024-02-23T05:49:17;1.37;80.37
75281;HTU21D;63874;47.230;39.620;2024-02-23T05:51:43;1.39;80.44
75281;HTU21D;63874;47.230;39.620;2024-02-23T05:54:09;1.41;79.85
75281;HTU21D;63874;47.230;39.620;2024-02-23T05:56:35;1.39;80.00
75281;HTU21D;63874;47.230;39.620;2024-02-23T05:59:02;1.37;79.91
75281;HTU21D;63874;47.230;39.620;2024-02-23T06:01:28;1.35;79.86
75281;HTU21D;63874;47.230;39.620;2024-02-23T06:03:54;1.33;79.47
75281;HTU21D;63874;47.230;39.620;2024-02-23T06:06:20;1.31;79.63
75281;HTU21D;63874;47.230;39.620;2024-02-23T06:08:46;1.35;79.62
75281;HTU21D;63874;47.230;39.620;2024-02-23T06:11:12;1.33;79.49
75281;HTU21D;63874;47.230;39.620;2024-02-23T06:13:37;1.31;79.59
75281;HTU21D;63874;47.230;39.620;2024-02-23T06:16:04;1.31;79.78
75281;HTU21D;63874;47.230;39.620;2024-02-23T06:18:31;1.39;79.91
75281;HTU21D;63874;47.230;39.620;2024-02-23T06:20:57;1.46;79.67
75281;HTU21D;63874;47.230;39.620;2024-02-23T06:23:22;1.53;79.66
75281;HTU21D;63874;47.230;39.620;2024-02-23T06:25:48;1.61;79.49
75281;HTU21D;63874;47.230;39.620;2024-02-23T06:28:14;1.64;79.27
75281;HTU21D;63874;47.230;39.620;2024-02-23T06:30:40;1.73;79.40
75281;HTU21D;63874;47.230;39.620;2024-02-23T06:33:08;1.82;78.95
75281;HTU21D;63874;47.230;39.620;2024-02-23T06:35:34;1.85;78.50
75281;HTU21D;63874;47.230;39.620;2024-02-23T06:38:00;1.88;78.82
75281;HTU21D;63874;47.230;39.620;2024-02-23T06:40:25;1.95;78.45
75281;HTU21D;63874;47.230;39.620;2024-02-23T06:42:51;1.96;78.62
75281;HTU21D;63874;47.230;39.620;2024-02-23T06:45:17;2.03;78.57
75281;HTU21D;63874;47.230;39.620;2024-02-23T06:47:44;2.10;78.48
75281;HTU21D;63874;47.230;39.620;2024-02-23T06:50:10;2.13;78.33
75281;HTU21D;63874;47.230;39.620;2024-02-23T06:52:36;2.15;78.64
75281;HTU21D;63874;47.230;39.620;2024-02-23T06:55:11;2.23;78.30
75281;HTU21D;63874;47.230;39.620;2024-02-23T06:57:37;2.29;77.56
75281;HTU21D;63874;47.230;39.620;2024-02-23T07:00:04;2.26;77.09
75281;HTU21D;63874;47.230;39.620;2024-02-23T07:02:30;2.21;77.21
75281;HTU21D;63874;47.230;39.620;2024-02-23T07:04:59;2.20;77.02
75281;HTU21D;63874;47.230;39.620;2024-02-23T07:07:28;2.17;77.02
75281;HTU21D;63874;47.230;39.620;2024-02-23T07:09:55;2.15;77.27
75281;HTU21D;63874;47.230;39.620;2024-02-23T07:12:21;2.16;77.42
75281;HTU21D;63874;47.230;39.620;2024-02-23T07:14:47;2.21;77.29
75281;HTU21D;63874;47.230;39.620;2024-02-23T07:17:16;2.21;77.31
75281;HTU21D;63874;47.230;39.620;2024-02-23T07:19:42;2.24;77.53
75281;HTU21D;63874;47.230;39.620;2024-02-23T07:22:08;2.26;77.43
75281;HTU21D;63874;47.230;39.620;2024-02-23T07:24:33;2.28;77.63
75281;HTU21D;63874;47.230;39.620;2024-02-23T07:26:59;2.32;77.60
75281;HTU21D;63874;47.230;39.620;2024-02-23T07:29:25;2.40;77.56
75281;HTU21D;63874;47.230;39.620;2024-02-23T07:31:50;2.44;77.20
75281;HTU21D;63874;47.230;39.620;2024-02-23T07:34:16;2.43;77.38
75281;HTU21D;63874;47.230;39.620;2024-02-23T07:36:42;2.50;76.77
75281;HTU21D;63874;47.230;39.620;2024-02-23T07:39:08;2.49;76.96
75281;HTU21D;63874;47.230;39.620;2024-02-23T07:41:34;2.53;76.78
75281;HTU21D;63874;47.230;39.620;2024-02-23T07:44:00;2.52;76.90
75281;HTU21D;63874;47.230;39.620;2024-02-23T07:46:25;2.58;76.80
75281;HTU21D;63874;47.230;39.620;2024-02-23T07:48:51;2.59;76.68
75281;HTU21D;63874;47.230;39.620;2024-02-23T07:51:17;2.57;76.60
75281;HTU21D;63874;47.230;39.620;2024-02-23T07:53:42;2.59;76.30
75281;HTU21D;63874;47.230;39.620;2024-02-23T07:56:08;2.55;76.35
75281;HTU21D;63874;47.230;39.620;2024-02-23T07:58:34;2.50;76.71
75281;HTU21D;63874;47.230;39.620;2024-02-23T08:00:59;2.49;76.60
75281;HTU21D;63874;47.230;39.620;2024-02-23T08:03:25;2.50;76.93
75281;HTU21D;63874;47.230;39.620;2024-02-23T08:05:51;2.56;76.87
75281;HTU21D;63874;47.230;39.620;2024-02-23T08:08:17;2.54;76.58
75281;HTU21D;63874;47.230;39.620;2024-02-23T08:10:43;2.52;76.83
75281;HTU21D;63874;47.230;39.620;2024-02-23T08:13:09;2.51;76.89
75281;HTU21D;63874;47.230;39.620;2024-02-23T08:15:36;2.58;77.01
75281;HTU21D;63874;47.230;39.620;2024-02-23T08:18:01;2.62;76.99
75281;HTU21D;63874;47.230;39.620;2024-02-23T08:20:27;2.62;76.78
75281;HTU21D;63874;47.230;39.620;2024-02-23T08:22:53;2.67;76.71
75281;HTU21D;63874;47.230;39.620;2024-02-23T08:25:18;2.64;76.88
75281;HTU21D;63874;47.230;39.620;2024-02-23T08:27:44;2.71;76.96
75281;HTU21D;63874;47.230;39.620;2024-02-23T08:30:10;2.74;76.75
75281;HTU21D;63874;47.230;39.620;2024-02-23T08:32:39;2.73;76.66
75281;HTU21D;63874;47.230;39.620;2024-02-23T08:35:05;2.72;76.74
75281;HTU21D;63874;47.230;39.620;2024-02-23T08:37:31;2.74;76.95
75281;HTU21D;63874;47.230;39.620;2024-02-23T08:39:57;2.82;76.85
75281;HTU21D;63874;47.230;39.620;2024-02-23T08:42:22;2.90;76.64
75281;HTU21D;63874;47.230;39.620;2024-02-23T08:44:48;2.97;76.60
75281;HTU21D;63874;47.230;39.620;2024-02-23T08:47:14;3.12;76.55
75281;HTU21D;63874;47.230;39.620;2024-02-23T08:49:39;3.27;75.78
75281;HTU21D;63874;47.230;39.620;2024-02-23T08:52:05;3.33;75.54
75281;HTU21D;63874;47.230;39.620;2024-02-23T08:54:31;3.42;75.58
75281;HTU21D;63874;47.230;39.620;2024-02-23T08:56:57;3.55;74.57
75281;HTU21D;63874;47.230;39.620;2024-02-23T08:59:23;3.64;74.32
75281;HTU21D;63874;47.230;39.620;2024-02-23T09:01:48;3.68;74.28
75281;HTU21D;63874;47.230;39.620;2024-02-23T09:04:14;3.77;74.76
75281;HTU21D;63874;47.230;39.620;2024-02-23T09:06:40;3.97;74.48
75281;HTU21D;63874;47.230;39.620;2024-02-23T09:09:06;4.17;74.73
75281;HTU21D;63874;47.230;39.620;2024-02-23T09:11:31;4.44;74.46
75281;HTU21D;63874;47.230;39.620;2024-02-23T09:13:57;4.56;72.89
75281;HTU21D;63874;47.230;39.620;2024-02-23T09:16:23;4.59;72.58
75281;HTU21D;63874;47.230;39.620;2024-02-23T09:18:50;4.59;72.48
75281;HTU21D;63874;47.230;39.620;2024-02-23T09:21:16;4.72;73.38
75281;HTU21D;63874;47.230;39.620;2024-02-23T09:23:41;4.96;73.27
75281;HTU21D;63874;47.230;39.620;2024-02-23T09:26:10;5.20;73.18
75281;HTU21D;63874;47.230;39.620;2024-02-23T09:28:38;5.42;72.13
75281;HTU21D;63874;47.230;39.620;2024-02-23T09:31:07;5.67;72.27
75281;HTU21D;63874;47.230;39.620;2024-02-23T09:33:33;6.19;71.55
75281;HTU21D;63874;47.230;39.620;2024-02-23T09:35:58;6.72;70.89
75281;HTU21D;63874;47.230;39.620;2024-02-23T09:38:24;6.94;69.40
75281;HTU21D;63874;47.230;39.620;2024-02-23T09:40:51;6.93;67.56
75281;HTU21D;63874;47.230;39.620;2024-02-23T09:43:16;6.90;67.81
75281;HTU21D;63874;47.230;39.620;2024-02-23T09:45:42;7.16;69.00
75281;HTU21D;63874;47.230;39.620;2024-02-23T09:48:08;7.44;68.06
75281;HTU21D;63874;47.230;39.620;2024-02-23T09:50:37;7.76;67.43
75281;HTU21D;63874;47.230;39.620;2024-02-23T09:53:03;7.97;66.75
75281;HTU21D;63874;47.230;39.620;2024-02-23T09:55:29;8.35;66.30
75281;HTU21D;63874;47.230;39.620;2024-02-23T09:57:56;8.48;65.04
75281;HTU21D;63874;47.230;39.620;2024-02-23T10:00:23;9.19;62.21
75281;HTU21D;63874;47.230;39.620;2024-02-23T10:02:49;10.62;61.12
75281;HTU21D;63874;47.230;39.620;2024-02-23T10:05:16;12.07;58.39
75281;HTU21D;63874;47.230;39.620;2024-02-23T10:07:42;13.45;57.91
75281;HTU21D;63874;47.230;39.620;2024-02-23T10:10:09;13.71;56.12
75281;HTU21D;63874;47.230;39.620;2024-02-23T10:12:36;13.11;53.29
75281;HTU21D;63874;47.230;39.620;2024-02-23T10:15:03;12.07;53.48
75281;HTU21D;63874;47.230;39.620;2024-02-23T10:17:31;11.43;53.76
75281;HTU21D;63874;47.230;39.620;2024-02-23T10:19:58;10.69;55.65
75281;HTU21D;63874;47.230;39.620;2024-02-23T10:22:24;9.83;55.93
75281;HTU21D;63874;47.230;39.620;2024-02-23T10:24:50;9.02;57.45
75281;HTU21D;63874;47.230;39.620;2024-02-23T10:27:16;8.39;57.51
75281;HTU21D;63874;47.230;39.620;2024-02-23T10:29:42;7.77;57.99
75281;HTU21D;63874;47.230;39.620;2024-02-23T10:32:09;7.27;59.34
75281;HTU21D;63874;47.230;39.620;2024-02-23T10:34:35;6.97;61.16
75281;HTU21D;63874;47.230;39.620;2024-02-23T10:37:03;6.90;61.74
75281;HTU21D;63874;47.230;39.620;2024-02-23T10:39:31;6.91;62.02
75281;HTU21D;63874;47.230;39.620;2024-02-23T10:42:00;6.84;61.61
75281;HTU21D;63874;47.230;39.620;2024-02-23T10:44:28;6.66;62.00
75281;HTU21D;63874;47.230;39.620;2024-02-23T10:46:54;6.48;62.69
75281;HTU21D;63874;47.230;39.620;2024-02-23T10:49:20;6.46;63.56
75281;HTU21D;63874;47.230;39.620;2024-02-23T10:51:51;6.74;63.68
75281;HTU21D;63874;47.230;39.620;2024-02-23T10:54:17;7.11;64.01
75281;HTU21D;63874;47.230;39.620;2024-02-23T10:56:51;7.53;63.11
75281;HTU21D;63874;47.230;39.620;2024-02-23T10:59:18;7.72;62.03
75281;HTU21D;63874;47.230;39.620;2024-02-23T11:01:46;7.91;61.76
75281;HTU21D;63874;47.230;39.620;2024-02-23T11:04:17;8.23;61.44
75281;HTU21D;63874;47.230;39.620;2024-02-23T11:06:48;9.36;60.47
75281;HTU21D;63874;47.230;39.620;2024-02-23T11:09:14;10.45;58.41
75281;HTU21D;63874;47.230;39.620;2024-02-23T11:11:40;11.32;56.42
75281;HTU21D;63874;47.230;39.620;2024-02-23T11:14:16;11.18;53.97
75281;HTU21D;63874;47.230;39.620;2024-02-23T11:16:41;10.49;54.56
75281;HTU21D;63874;47.230;39.620;2024-02-23T11:19:08;9.93;56.25
75281;HTU21D;63874;47.230;39.620;2024-02-23T11:21:36;9.57;56.33
75281;HTU21D;63874;47.230;39.620;2024-02-23T11:24:03;9.06;56.28
75281;HTU21D;63874;47.230;39.620;2024-02-23T11:26:29;8.52;56.76
75281;HTU21D;63874;47.230;39.620;2024-02-23T11:28:54;8.09;58.00
75281;HTU21D;63874;47.230;39.620;2024-02-23T11:31:21;7.88;59.26
75281;HTU21D;63874;47.230;39.620;2024-02-23T11:33:50;7.83;59.20
75281;HTU21D;63874;47.230;39.620;2024-02-23T11:38:52;7.41;60.21
75281;HTU21D;63874;47.230;39.620;2024-02-23T11:41:18;7.30;60.46
75281;HTU21D;63874;47.230;39.620;2024-02-23T11:43:44;7.22;60.72
75281;HTU21D;63874;47.230;39.620;2024-02-23T11:46:12;7.01;60.38
75281;HTU21D;63874;47.230;39.620;2024-02-23T11:48:39;6.70;61.01
75281;HTU21D;63874;47.230;39.620;2024-02-23T11:51:04;6.43;61.62
75281;HTU21D;63874;47.230;39.620;2024-02-23T11:53:30;6.23;62.49
75281;HTU21D;63874;47.230;39.620;2024-02-23T11:55:56;6.10;62.91
75281;HTU21D;63874;47.230;39.620;2024-02-23T11:58:23;6.02;63.21
75281;HTU21D;63874;47.230;39.620;2024-02-23T12:00:50;5.93;63.48
75281;HTU21D;63874;47.230;39.620;2024-02-23T12:03:16;5.85;64.04
75281;HTU21D;63874;47.230;39.620;2024-02-23T12:05:43;5.94;64.43
75281;HTU21D;63874;47.230;39.620;2024-02-23T12:08:08;5.98;64.34
75281;HTU21D;63874;47.230;39.620;2024-02-23T12:10:34;5.96;64.46
75281;HTU21D;63874;47.230;39.620;2024-02-23T12:13:00;5.85;64.56
75281;HTU21D;63874;47.230;39.620;2024-02-23T12:15:26;5.75;64.76
75281;HTU21D;63874;47.230;39.620;2024-02-23T12:17:53;5.66;64.88
75281;HTU21D;63874;47.230;39.620;2024-02-23T12:20:19;5.56;65.20
75281;HTU21D;63874;47.230;39.620;2024-02-23T12:22:47;5.49;65.57
75281;HTU21D;63874;47.230;39.620;2024-02-23T12:25:12;5.43;65.67
75281;HTU21D;63874;47.230;39.620;2024-02-23T12:27:38;5.41;65.85
75281;HTU21D;63874;47.230;39.620;2024-02-23T12:30:04;5.39;65.98
75281;HTU21D;63874;47.230;39.620;2024-02-23T12:32:30;5.38;66.12
75281;HTU21D;63874;47.230;39.620;2024-02-23T12:34:56;5.38;66.38
75281;HTU21D;63874;47.230;39.620;2024-02-23T12:37:21;5.33;66.41
75281;HTU21D;63874;47.230;39.620;2024-02-23T12:39:50;5.31;66.36
75281;HTU21D;63874;47.230;39.620;2024-02-23T12:42:15;5.22;66.48
75281;HTU21D;63874;47.230;39.620;2024-02-23T12:44:41;5.16;66.72
75281;HTU21D;63874;47.230;39.620;2024-02-23T12:47:08;5.11;66.91
75281;HTU21D;63874;47.230;39.620;2024-02-23T12:49:34;5.08;66.95
75281;HTU21D;63874;47.230;39.620;2024-02-23T12:52:00;5.04;67.15
75281;HTU21D;63874;47.230;39.620;2024-02-23T12:54:26;5.06;67.17
75281;HTU21D;63874;47.230;39.620;2024-02-23T12:56:52;5.03;67.35
75281;HTU21D;63874;47.230;39.620;2024-02-23T12:59:17;5.03;67.37
75281;HTU21D;63874;47.230;39.620;2024-02-23T13:01:43;4.98;67.26
75281;HTU21D;63874;47.230;39.620;2024-02-23T13:04:09;4.96;67.36
75281;HTU21D;63874;47.230;39.620;2024-02-23T13:06:39;4.88;67.46
75281;HTU21D;63874;47.230;39.620;2024-02-23T13:09:05;4.83;67.61
75281;HTU21D;63874;47.230;39.620;2024-02-23T13:11:33;4.82;67.68
75281;HTU21D;63874;47.230;39.620;2024-02-23T13:13:59;4.79;67.85
75281;HTU21D;63874;47.230;39.620;2024-02-23T13:16:25;4.74;68.08
75281;HTU21D;63874;47.230;39.620;2024-02-23T13:18:51;4.71;68.12
75281;HTU21D;63874;47.230;39.620;2024-02-23T13:21:17;4.68;68.18
75281;HTU21D;63874;47.230;39.620;2024-02-23T13:23:43;4.62;68.34
75281;HTU21D;63874;47.230;39.620;2024-02-23T13:26:09;4.56;68.50
75281;HTU21D;63874;47.230;39.620;2024-02-23T13:28:36;4.49;68.54
75281;HTU21D;63874;47.230;39.620;2024-02-23T13:31:02;4.42;68.68
75281;HTU21D;63874;47.230;39.620;2024-02-23T13:33:28;4.36;68.93
75281;HTU21D;63874;47.230;39.620;2024-02-23T13:35:54;4.32;68.98
75281;HTU21D;63874;47.230;39.620;2024-02-23T13:38:20;4.32;68.91
75281;HTU21D;63874;47.230;39.620;2024-02-23T13:40:46;4.30;68.95
75281;HTU21D;63874;47.230;39.620;2024-02-23T13:43:12;4.24;69.00
75281;HTU21D;63874;47.230;39.620;2024-02-23T13:45:50;4.18;69.05
75281;HTU21D;63874;47.230;39.620;2024-02-23T13:48:16;4.12;69.23
75281;HTU21D;63874;47.230;39.620;2024-02-23T13:50:44;4.05;69.42
75281;HTU21D;63874;47.230;39.620;2024-02-23T13:53:11;4.04;69.71
75281;HTU21D;63874;47.230;39.620;2024-02-23T13:55:37;4.00;69.82
75281;HTU21D;63874;47.230;39.620;2024-02-23T13:58:03;3.97;70.11
75281;HTU21D;63874;47.230;39.620;2024-02-23T14:00:29;3.89;70.29
75281;HTU21D;63874;47.230;39.620;2024-02-23T14:02:55;3.86;70.55
75281;HTU21D;63874;47.230;39.620;2024-02-23T14:05:21;3.83;70.54
75281;HTU21D;63874;47.230;39.620;2024-02-23T14:07:47;3.83;70.72
75281;HTU21D;63874;47.230;39.620;2024-02-23T14:10:13;3.73;70.93
75281;HTU21D;63874;47.230;39.620;2024-02-23T14:12:39;3.69;70.97
75281;HTU21D;63874;47.230;39.620;2024-02-23T14:15:06;3.67;71.20
75281;HTU21D;63874;47.230;39.620;2024-02-23T14:17:32;3.56;71.12
75281;HTU21D;63874;47.230;39.620;2024-02-23T14:19:58;3.52;71.27
75281;HTU21D;63874;47.230;39.620;2024-02-23T14:22:23;3.48;71.38
75281;HTU21D;63874;47.230;39.620;2024-02-23T14:24:49;3.43;71.51
75281;HTU21D;63874;47.230;39.620;2024-02-23T14:27:15;3.41;71.61
75281;HTU21D;63874;47.230;39.620;2024-02-23T14:29:40;3.33;71.80
75281;HTU21D;63874;47.230;39.620;2024-02-23T14:32:06;3.32;72.16
75281;HTU21D;63874;47.230;39.620;2024-02-23T14:34:32;3.30;72.09
75281;HTU21D;63874;47.230;39.620;2024-02-23T14:37:00;3.24;72.16
75281;HTU21D;63874;47.230;39.620;2024-02-23T14:39:26;3.17;72.24
75281;HTU21D;63874;47.230;39.620;2024-02-23T14:41:52;3.16;72.41
75281;HTU21D;63874;47.230;39.620;2024-02-23T14:44:17;3.09;72.64
75281;HTU21D;63874;47.230;39.620;2024-02-23T14:46:43;3.03;72.68
75281;HTU21D;63874;47.230;39.620;2024-02-23T14:49:09;3.03;73.14
75281;HTU21D;63874;47.230;39.620;2024-02-23T14:51:35;2.96;73.02
75281;HTU21D;63874;47.230;39.620;2024-02-23T14:54:02;2.89;73.25
75281;HTU21D;63874;47.230;39.620;2024-02-23T14:56:28;2.89;73.66
75281;HTU21D;63874;47.230;39.620;2024-02-23T14:58:54;2.82;73.53
75281;HTU21D;63874;47.230;39.620;2024-02-23T15:01:20;2.81;74.12
75281;HTU21D;63874;47.230;39.620;2024-02-23T15:03:45;2.78;74.06
75281;HTU21D;63874;47.230;39.620;2024-02-23T15:06:12;2.74;74.57
75281;HTU21D;63874;47.230;39.620;2024-02-23T15:08:38;2.68;74.65